Station Historical Data
Daily Summary for March 08, 2018 Units:  English    Metric   Both
« Previous Day
Next Day »
Daily Weekly Monthly Yearly Custom
  High: Low: Average:
Temperature: 30.7 °F 20.9 °F 27.4 °F
Dew Point: 26.7 °F 17.9 °F 21.9 °F
Humidity: 89% 66% 80%
Wind Speed: 20.0mph 0.0mph 5.8mph
Wind Gust: 25.0mph - -
Wind- - WSW
Pressure: 29.81 in 29.72 in -
Precipitation: 0.00 in    
Historical Graphs
 
 
Tabular Data for March 08, 2018
Time Temperature Dew Point Pressure Wind Wind Speed Wind Gust Humidity Rainfall Rate (Hourly)
00:04 30.7 °F 26.7 °F 29.81 in SW 8.0 mph 19.0 mph 85% 0.00 in
00:09 30.7 °F 26.7 °F 29.81 in WSW 8.0 mph 19.0 mph 85% 0.00 in
00:14 30.6 °F 26.6 °F 29.81 in WSW 7.0 mph 14.0 mph 85% 0.00 in
00:19 30.5 °F 26.5 °F 29.81 in SW 8.0 mph 16.0 mph 85% 0.00 in
00:24 30.4 °F 26.4 °F 29.81 in WSW 9.0 mph 16.0 mph 85% 0.00 in
00:29 30.3 °F 26.0 °F 29.81 in West 12.0 mph 14.0 mph 84% 0.00 in
00:34 30.3 °F 25.8 °F 29.81 in SSW 11.0 mph 16.0 mph 83% 0.00 in
00:39 30.4 °F 25.9 °F 29.81 in SW 11.0 mph 15.0 mph 83% 0.00 in
00:44 30.4 °F 25.6 °F 29.81 in West 9.0 mph 18.0 mph 82% 0.00 in
00:49 30.4 °F 25.6 °F 29.81 in SW 9.0 mph 15.0 mph 82% 0.00 in
00:54 30.3 °F 25.5 °F 29.81 in WSW 9.0 mph 14.0 mph 82% 0.00 in
00:59 30.3 °F 25.5 °F 29.81 in WSW 8.0 mph 16.0 mph 82% 0.00 in
01:04 30.2 °F 25.4 °F 29.81 in WSW 8.0 mph 16.0 mph 82% 0.00 in
01:09 30.1 °F 25.6 °F 29.81 in WSW 7.0 mph 16.0 mph 83% 0.00 in
01:14 30.1 °F 25.8 °F 29.81 in WSW 5.0 mph 16.0 mph 84% 0.00 in
01:19 30.1 °F 25.8 °F 29.81 in West 9.0 mph 13.0 mph 84% 0.00 in
01:24 29.8 °F 25.8 °F 29.81 in SW 7.0 mph 14.0 mph 85% 0.00 in
01:29 29.7 °F 25.7 °F 29.81 in West 9.0 mph 12.0 mph 85% 0.00 in
01:34 29.5 °F 25.5 °F 29.81 in WSW 7.0 mph 16.0 mph 85% 0.00 in
01:39 29.4 °F 25.7 °F 29.81 in WSW 7.0 mph 16.0 mph 86% 0.00 in
01:44 29.4 °F 25.7 °F 29.81 in WSW 6.0 mph 12.0 mph 86% 0.00 in
01:49 29.3 °F 25.6 °F 29.81 in SW 6.0 mph 10.0 mph 86% 0.00 in
01:54 29.2 °F 25.5 °F 29.81 in West 8.0 mph 12.0 mph 86% 0.00 in
01:59 28.8 °F 24.9 °F 29.81 in WSW 5.0 mph 13.0 mph 85% 0.00 in
02:04 28.7 °F 24.8 °F 29.81 in SW 6.0 mph 10.0 mph 85% 0.00 in
02:09 28.7 °F 24.8 °F 29.81 in WSW 6.0 mph 12.0 mph 85% 0.00 in
02:14 28.7 °F 24.8 °F 29.80 in WSW 6.0 mph 12.0 mph 85% 0.00 in
02:19 28.7 °F 24.5 °F 29.80 in WSW 6.0 mph 13.0 mph 84% 0.00 in
02:24 28.7 °F 24.5 °F 29.80 in WSW 6.0 mph 13.0 mph 84% 0.00 in
02:29 28.6 °F 24.4 °F 29.80 in SW 7.0 mph 13.0 mph 84% 0.00 in
02:34 28.5 °F 24.3 °F 29.80 in SSW 4.0 mph 10.0 mph 84% 0.00 in
02:39 28.5 °F 24.3 °F 29.79 in SW 5.0 mph 16.0 mph 84% 0.00 in
02:44 28.3 °F 23.8 °F 29.79 in WNW 5.0 mph 11.0 mph 83% 0.00 in
02:49 28.2 °F 23.7 °F 29.79 in SW 9.0 mph 14.0 mph 83% 0.00 in
02:54 28.3 °F 23.5 °F 29.79 in West 8.0 mph 15.0 mph 82% 0.00 in
02:59 28.2 °F 23.4 °F 29.79 in West 6.0 mph 14.0 mph 82% 0.00 in
03:04 28.2 °F 23.4 °F 29.79 in West 15.0 mph 15.0 mph 82% 0.00 in
03:09 28.2 °F 23.4 °F 29.79 in WSW 12.0 mph 15.0 mph 82% 0.00 in
03:14 28.1 °F 23.3 °F 29.79 in WSW 9.0 mph 20.0 mph 82% 0.00 in
03:19 28.1 °F 23.0 °F 29.79 in WSW 9.0 mph 20.0 mph 81% 0.00 in
03:24 28.1 °F 23.0 °F 29.79 in WSW 9.0 mph 17.0 mph 81% 0.00 in
03:29 28.1 °F 23.0 °F 29.79 in WSW 8.0 mph 17.0 mph 81% 0.00 in
03:34 27.9 °F 22.8 °F 29.79 in WSW 9.0 mph 19.0 mph 81% 0.00 in
03:39 27.7 °F 22.3 °F 29.79 in West 7.0 mph 17.0 mph 80% 0.00 in
03:44 27.4 °F 22.0 °F 29.79 in SW 10.0 mph 17.0 mph 80% 0.00 in
03:49 27.3 °F 21.9 °F 29.79 in WSW 8.0 mph 17.0 mph 80% 0.00 in
03:54 27.1 °F 21.7 °F 29.80 in WSW 8.0 mph 17.0 mph 80% 0.00 in
03:59 26.9 °F 21.3 °F 29.80 in WSW 8.0 mph 17.0 mph 79% 0.00 in
04:04 26.6 °F 21.0 °F 29.80 in West 7.0 mph 12.0 mph 79% 0.00 in
04:09 26.5 °F 20.6 °F 29.80 in WSW 5.0 mph 13.0 mph 78% 0.00 in
04:14 26.2 °F 20.3 °F 29.80 in SW 9.0 mph 11.0 mph 78% 0.00 in
04:19 26.0 °F 19.8 °F 29.79 in WSW 3.0 mph 12.0 mph 77% 0.00 in
04:24 25.9 °F 19.7 °F 29.79 in West 7.0 mph 12.0 mph 77% 0.00 in
04:29 25.9 °F 19.7 °F 29.80 in West 6.0 mph 12.0 mph 77% 0.00 in
04:34 25.9 °F 20.0 °F 29.79 in West 5.0 mph 11.0 mph 78% 0.00 in
04:39 26.0 °F 20.1 °F 29.79 in WSW 6.0 mph 12.0 mph 78% 0.00 in
04:44 26.0 °F 20.1 °F 29.79 in WSW 5.0 mph 12.0 mph 78% 0.00 in
04:49 26.0 °F 20.4 °F 29.80 in WSW 4.0 mph 8.0 mph 79% 0.00 in
04:54 26.0 °F 20.4 °F 29.80 in West 4.0 mph 7.0 mph 79% 0.00 in
04:59 26.0 °F 20.4 °F 29.80 in West 3.0 mph 7.0 mph 79% 0.00 in
05:04 26.0 °F 20.4 °F 29.79 in WSW 4.0 mph 9.0 mph 79% 0.00 in
05:09 26.0 °F 20.4 °F 29.80 in WSW 3.0 mph 9.0 mph 79% 0.00 in
05:14 26.0 °F 20.4 °F 29.79 in West 2.0 mph 7.0 mph 79% 0.00 in
05:19 26.0 °F 20.4 °F 29.79 in Calm   6.0 mph 79% 0.00 in
05:24 26.1 °F 20.8 °F 29.79 in SW 3.0 mph 7.0 mph 80% 0.00 in
05:29 26.2 °F 20.9 °F 29.80 in WSW 3.0 mph 6.0 mph 80% 0.00 in
05:34 26.3 °F 21.0 °F 29.79 in WSW 3.0 mph 9.0 mph 80% 0.00 in
05:39 26.3 °F 21.0 °F 29.80 in SW 4.0 mph 9.0 mph 80% 0.00 in
05:44 26.3 °F 21.3 °F 29.80 in SW 5.0 mph 11.0 mph 81% 0.00 in
05:49 26.3 °F 21.3 °F 29.80 in SW 5.0 mph 11.0 mph 81% 0.00 in
05:54 26.2 °F 21.2 °F 29.80 in SW 4.0 mph 8.0 mph 81% 0.00 in
05:59 26.1 °F 21.1 °F 29.80 in SW 4.0 mph 8.0 mph 81% 0.00 in
06:04 25.9 °F 21.2 °F 29.80 in SW 4.0 mph 8.0 mph 82% 0.00 in
06:09 25.8 °F 21.1 °F 29.80 in SW 4.0 mph 13.0 mph 82% 0.00 in
06:14 25.7 °F 21.0 °F 29.79 in SW 2.0 mph 10.0 mph 82% 0.00 in
06:19 25.5 °F 20.8 °F 29.80 in SW 3.0 mph 9.0 mph 82% 0.00 in
06:24 25.4 °F 20.4 °F 29.80 in WSW 4.0 mph 10.0 mph 81% 0.00 in
06:29 25.3 °F 20.3 °F 29.80 in WSW 6.0 mph 11.0 mph 81% 0.00 in
06:34 25.2 °F 20.2 °F 29.80 in SW 8.0 mph 14.0 mph 81% 0.00 in
06:39 25.1 °F 19.8 °F 29.80 in SW 4.0 mph 12.0 mph 80% 0.00 in
06:44 25.0 °F 19.4 °F 29.80 in WSW 6.0 mph 12.0 mph 79% 0.00 in
06:49 25.0 °F 19.1 °F 29.80 in WSW 5.0 mph 9.0 mph 78% 0.00 in
06:54 25.1 °F 19.2 °F 29.80 in WSW 5.0 mph 9.0 mph 78% 0.00 in
06:59 25.1 °F 19.2 °F 29.80 in WSW 5.0 mph 13.0 mph 78% 0.00 in
07:04 25.1 °F 19.2 °F 29.80 in WSW 4.0 mph 13.0 mph 78% 0.00 in
07:09 25.2 °F 19.3 °F 29.80 in WSW 2.0 mph 8.0 mph 78% 0.00 in
07:14 25.3 °F 19.4 °F 29.80 in WSW 5.0 mph 8.0 mph 78% 0.00 in
07:19 25.5 °F 19.6 °F 29.80 in WSW 4.0 mph 9.0 mph 78% 0.00 in
07:24 25.6 °F 19.7 °F 29.80 in WSW 4.0 mph 9.0 mph 78% 0.00 in
07:29 25.6 °F 19.7 °F 29.80 in WSW 3.0 mph 9.0 mph 78% 0.00 in
07:34 25.6 °F 19.7 °F 29.80 in WSW 1.0 mph 8.0 mph 78% 0.00 in
07:39 25.9 °F 20.0 °F 29.80 in WSW 5.0 mph 7.0 mph 78% 0.00 in
07:44 26.1 °F 20.2 °F 29.80 in WSW 5.0 mph 7.0 mph 78% 0.00 in
07:49 26.3 °F 20.4 °F 29.81 in WSW 2.0 mph 7.0 mph 78% 0.00 in
07:54 26.4 °F 20.2 °F 29.80 in WSW 4.0 mph 8.0 mph 77% 0.00 in
07:59 26.6 °F 20.4 °F 29.80 in WSW 4.0 mph 8.0 mph 77% 0.00 in
08:04 26.7 °F 20.1 °F 29.80 in WSW 4.0 mph 16.0 mph 76% 0.00 in
08:09 26.6 °F 20.1 °F 29.80 in SW 7.0 mph 16.0 mph 76% 0.00 in
08:14 26.5 °F 19.6 °F 29.80 in WSW 10.0 mph 14.0 mph 75% 0.00 in
08:19 27.0 °F 20.4 °F 29.80 in WSW 3.0 mph 12.0 mph 76% 0.00 in
08:24 27.4 °F 20.5 °F 29.80 in WSW 4.0 mph 11.0 mph 75% 0.00 in
08:29 27.6 °F 21.0 °F 29.80 in WSW 10.0 mph 13.0 mph 76% 0.00 in
08:34 27.8 °F 21.2 °F 29.80 in WSW 5.0 mph 13.0 mph 76% 0.00 in
08:39 28.1 °F 21.5 °F 29.80 in SSW 5.0 mph 12.0 mph 76% 0.00 in
08:44 28.1 °F 21.2 °F 29.80 in NW 4.0 mph 12.0 mph 75% 0.00 in
08:49 27.9 °F 20.7 °F 29.80 in West 9.0 mph 13.0 mph 74% 0.00 in
08:54 28.0 °F 20.8 °F 29.80 in WSW 8.0 mph 13.0 mph 74% 0.00 in
08:59 27.8 °F 20.6 °F 29.80 in SW 6.0 mph 15.0 mph 74% 0.00 in
09:04 28.0 °F 20.8 °F 29.80 in WSW 7.0 mph 15.0 mph 74% 0.00 in
09:09 28.1 °F 21.2 °F 29.80 in SW 6.0 mph 12.0 mph 75% 0.00 in
09:14 28.1 °F 20.9 °F 29.80 in SW 6.0 mph 12.0 mph 74% 0.00 in
09:19 27.9 °F 20.7 °F 29.80 in WSW 7.0 mph 13.0 mph 74% 0.00 in
09:24 28.0 °F 21.1 °F 29.80 in WSW 6.0 mph 13.0 mph 75% 0.00 in
09:29 28.2 °F 21.0 °F 29.80 in WSW 6.0 mph 12.0 mph 74% 0.00 in
09:34 28.3 °F 21.1 °F 29.80 in WSW 11.0 mph 12.0 mph 74% 0.00 in
09:39 28.3 °F 21.1 °F 29.80 in WSW 6.0 mph 13.0 mph 74% 0.00 in
09:44 28.2 °F 21.0 °F 29.80 in SW 7.0 mph 13.0 mph 74% 0.00 in
09:49 28.5 °F 21.3 °F 29.80 in SSW 6.0 mph 16.0 mph 74% 0.00 in
09:54 28.7 °F 21.5 °F 29.80 in WSW 5.0 mph 13.0 mph 74% 0.00 in
09:59 28.6 °F 20.7 °F 29.80 in WSW 8.0 mph 18.0 mph 72% 0.00 in
10:04 28.5 °F 20.3 °F 29.80 in SW 11.0 mph 16.0 mph 71% 0.00 in
10:09 28.7 °F 20.1 °F 29.80 in West 6.0 mph 13.0 mph 70% 0.00 in
10:14 29.0 °F 20.4 °F 29.80 in WSW 8.0 mph 15.0 mph 70% 0.00 in
10:19 28.7 °F 19.8 °F 29.80 in SW 9.0 mph 22.0 mph 69% 0.00 in
10:24 29.0 °F 20.1 °F 29.80 in SW 10.0 mph 22.0 mph 69% 0.00 in
10:29 29.2 °F 20.3 °F 29.80 in SW 8.0 mph 15.0 mph 69% 0.00 in
10:34 28.7 °F 19.5 °F 29.80 in WSW 9.0 mph 17.0 mph 68% 0.00 in
10:39 28.4 °F 18.8 °F 29.80 in WSW 10.0 mph 18.0 mph 67% 0.00 in
10:44 28.5 °F 19.3 °F 29.79 in WSW 9.0 mph 18.0 mph 68% 0.00 in
10:49 28.9 °F 19.7 °F 29.79 in SW 7.0 mph 20.0 mph 68% 0.00 in
10:54 28.9 °F 19.3 °F 29.79 in SW 9.0 mph 24.0 mph 67% 0.00 in
10:59 29.0 °F 19.1 °F 29.79 in SW 15.0 mph 22.0 mph 66% 0.00 in
11:04 29.5 °F 19.9 °F 29.80 in WNW 5.0 mph 21.0 mph 67% 0.00 in
11:09 29.7 °F 20.4 °F 29.79 in WSW 7.0 mph 16.0 mph 68% 0.00 in
11:14 29.3 °F 20.0 °F 29.79 in WSW 10.0 mph 18.0 mph 68% 0.00 in
11:19 29.7 °F 21.1 °F 29.80 in WSW 9.0 mph 18.0 mph 70% 0.00 in
11:24 30.7 °F 21.4 °F 29.80 in WSW 8.0 mph 21.0 mph 68% 0.00 in
11:29 29.7 °F 20.4 °F 29.80 in WSW 10.0 mph 21.0 mph 68% 0.00 in
11:34 29.5 °F 20.6 °F 29.80 in WSW 11.0 mph 21.0 mph 69% 0.00 in
11:39 29.2 °F 20.3 °F 29.79 in SW 11.0 mph 21.0 mph 69% 0.00 in
11:44 28.9 °F 20.0 °F 29.79 in SW 8.0 mph 21.0 mph 69% 0.00 in
11:49 28.9 °F 20.7 °F 29.79 in SW 4.0 mph 17.0 mph 71% 0.00 in
11:54 28.9 °F 21.0 °F 29.79 in SW 6.0 mph 17.0 mph 72% 0.00 in
11:59 28.9 °F 21.3 °F 29.79 in SW 8.0 mph 17.0 mph 73% 0.00 in
12:04 28.5 °F 21.3 °F 29.79 in West 7.0 mph 19.0 mph 74% 0.00 in
12:09 28.7 °F 21.5 °F 29.79 in WSW 20.0 mph 22.0 mph 74% 0.00 in
12:14 29.0 °F 21.1 °F 29.79 in West 6.0 mph 20.0 mph 72% 0.00 in
12:19 29.2 °F 21.3 °F 29.79 in SW 9.0 mph 16.0 mph 72% 0.00 in
12:24 29.7 °F 21.8 °F 29.79 in SW 5.0 mph 15.0 mph 72% 0.00 in
12:29 29.9 °F 20.6 °F 29.79 in WSW 9.0 mph 18.0 mph 68% 0.00 in
12:34 29.9 °F 20.3 °F 29.79 in WSW 9.0 mph 19.0 mph 67% 0.00 in
12:39 29.6 °F 19.6 °F 29.78 in WSW 10.0 mph 19.0 mph 66% 0.00 in
12:44 29.8 °F 20.2 °F 29.78 in WSW 9.0 mph 18.0 mph 67% 0.00 in
12:49 29.9 °F 20.3 °F 29.78 in WSW 9.0 mph 17.0 mph 67% 0.00 in
12:54 29.4 °F 19.8 °F 29.78 in SW 5.0 mph 15.0 mph 67% 0.00 in
12:59 29.7 °F 20.4 °F 29.78 in WSW 9.0 mph 15.0 mph 68% 0.00 in
13:04 29.4 °F 20.1 °F 29.78 in WSW 8.0 mph 16.0 mph 68% 0.00 in
13:09 29.3 °F 19.7 °F 29.78 in WSW 9.0 mph 16.0 mph 67% 0.00 in
13:14 29.2 °F 19.6 °F 29.78 in SSW 20.0 mph 25.0 mph 67% 0.00 in
13:19 29.0 °F 19.8 °F 29.78 in WSW 10.0 mph 20.0 mph 68% 0.00 in
13:24 28.8 °F 19.9 °F 29.77 in WSW 11.0 mph 19.0 mph 69% 0.00 in
13:29 28.7 °F 19.8 °F 29.77 in South 10.0 mph 19.0 mph 69% 0.00 in
13:34 28.4 °F 19.9 °F 29.78 in SW 13.0 mph 19.0 mph 70% 0.00 in
13:39 28.5 °F 20.6 °F 29.77 in WSW 10.0 mph 19.0 mph 72% 0.00 in
13:44 28.7 °F 21.1 °F 29.78 in WSW 9.0 mph 19.0 mph 73% 0.00 in
13:49 28.7 °F 21.5 °F 29.77 in WSW 9.0 mph 19.0 mph 74% 0.00 in
13:54 28.9 °F 21.7 °F 29.77 in WSW 8.0 mph 16.0 mph 74% 0.00 in
13:59 28.9 °F 21.7 °F 29.77 in WSW 8.0 mph 16.0 mph 74% 0.00 in
14:04 28.7 °F 21.8 °F 29.77 in SW 8.0 mph 16.0 mph 75% 0.00 in
14:09 28.7 °F 22.1 °F 29.76 in WSW 9.0 mph 16.0 mph 76% 0.00 in
14:14 28.9 °F 22.0 °F 29.76 in WSW 10.0 mph 18.0 mph 75% 0.00 in
14:19 29.2 °F 21.9 °F 29.76 in WSW 10.0 mph 18.0 mph 74% 0.00 in
14:24 29.2 °F 21.9 °F 29.76 in WSW 9.0 mph 16.0 mph 74% 0.00 in
14:29 28.8 °F 21.6 °F 29.76 in SW 9.0 mph 20.0 mph 74% 0.00 in
14:34 28.5 °F 21.6 °F 29.77 in SW 10.0 mph 20.0 mph 75% 0.00 in
14:39 28.5 °F 21.9 °F 29.77 in SW 12.0 mph 16.0 mph 76% 0.00 in
14:44 28.3 °F 22.0 °F 29.77 in WSW 5.0 mph 20.0 mph 77% 0.00 in
14:49 28.1 °F 22.1 °F 29.76 in SW 8.0 mph 20.0 mph 78% 0.00 in
14:54 28.0 °F 22.3 °F 29.76 in SW 9.0 mph 18.0 mph 79% 0.00 in
14:59 28.3 °F 22.9 °F 29.76 in SW 9.0 mph 16.0 mph 80% 0.00 in
15:04 28.5 °F 23.1 °F 29.76 in SW 6.0 mph 19.0 mph 80% 0.00 in
15:09 28.5 °F 23.1 °F 29.76 in SW 6.0 mph 17.0 mph 80% 0.00 in
15:14 28.3 °F 22.9 °F 29.76 in West 7.0 mph 18.0 mph 80% 0.00 in
15:19 28.3 °F 22.9 °F 29.75 in SW 9.0 mph 17.0 mph 80% 0.00 in
15:24 28.4 °F 23.0 °F 29.76 in WSW 9.0 mph 17.0 mph 80% 0.00 in
15:29 28.3 °F 23.2 °F 29.76 in SW 7.0 mph 16.0 mph 81% 0.00 in
15:34 28.2 °F 23.1 °F 29.76 in SW 9.0 mph 18.0 mph 81% 0.00 in
15:39 28.1 °F 23.0 °F 29.76 in SW 8.0 mph 16.0 mph 81% 0.00 in
15:44 28.3 °F 23.5 °F 29.76 in WSW 5.0 mph 15.0 mph 82% 0.00 in
15:49 28.6 °F 23.8 °F 29.76 in WSW 8.0 mph 14.0 mph 82% 0.00 in
15:54 28.3 °F 23.2 °F 29.76 in West 6.0 mph 16.0 mph 81% 0.00 in
15:59 28.5 °F 23.4 °F 29.76 in WSW 8.0 mph 17.0 mph 81% 0.00 in
16:04 28.2 °F 23.1 °F 29.76 in WSW 8.0 mph 17.0 mph 81% 0.00 in
16:09 28.3 °F 23.2 °F 29.76 in WSW 8.0 mph 16.0 mph 81% 0.00 in
16:14 28.7 °F 23.9 °F 29.76 in SW 9.0 mph 10.0 mph 82% 0.00 in
16:19 28.5 °F 23.7 °F 29.76 in WSW 11.0 mph 13.0 mph 82% 0.00 in
16:24 28.3 °F 23.2 °F 29.76 in SW 4.0 mph 14.0 mph 81% 0.00 in
16:29 28.2 °F 23.4 °F 29.76 in WSW 7.0 mph 13.0 mph 82% 0.00 in
16:34 28.2 °F 23.4 °F 29.76 in WSW 6.0 mph 13.0 mph 82% 0.00 in
16:39 28.1 °F 23.6 °F 29.76 in SW 6.0 mph 13.0 mph 83% 0.00 in
16:44 27.9 °F 23.4 °F 29.76 in SW 2.0 mph 12.0 mph 83% 0.00 in
16:49 27.8 °F 23.6 °F 29.77 in WSW 6.0 mph 11.0 mph 84% 0.00 in
16:54 27.8 °F 23.6 °F 29.77 in SW 7.0 mph 13.0 mph 84% 0.00 in
16:59 27.9 °F 23.7 °F 29.76 in SW 7.0 mph 9.0 mph 84% 0.00 in
17:04 27.9 °F 23.7 °F 29.76 in WSW 4.0 mph 15.0 mph 84% 0.00 in
17:09 28.0 °F 23.8 °F 29.76 in WSW 7.0 mph 15.0 mph 84% 0.00 in
17:14 28.0 °F 23.8 °F 29.76 in SW 5.0 mph 15.0 mph 84% 0.00 in
17:19 27.9 °F 23.7 °F 29.77 in WSW 7.0 mph 15.0 mph 84% 0.00 in
17:24 27.9 °F 23.7 °F 29.77 in SW 6.0 mph 11.0 mph 84% 0.00 in
17:29 27.8 °F 23.6 °F 29.76 in SW 7.0 mph 15.0 mph 84% 0.00 in
17:34 27.8 °F 23.6 °F 29.77 in WSW 5.0 mph 13.0 mph 84% 0.00 in
17:39 27.8 °F 23.6 °F 29.77 in SW 11.0 mph 11.0 mph 84% 0.00 in
17:44 27.8 °F 23.6 °F 29.77 in WSW 7.0 mph 15.0 mph 84% 0.00 in
17:49 27.8 °F 23.6 °F 29.77 in WSW 7.0 mph 15.0 mph 84% 0.00 in
17:54 27.8 °F 23.9 °F 29.77 in SW 7.0 mph 12.0 mph 85% 0.00 in
17:59 27.8 °F 23.9 °F 29.77 in WSW 6.0 mph 12.0 mph 85% 0.00 in
18:04 27.8 °F 23.9 °F 29.77 in WSW 6.0 mph 11.0 mph 85% 0.00 in
18:09 27.9 °F 24.0 °F 29.76 in SW 5.0 mph 9.0 mph 85% 0.00 in
18:14 27.9 °F 24.0 °F 29.76 in WSW 5.0 mph 14.0 mph 85% 0.00 in
18:19 27.9 °F 24.0 °F 29.76 in WSW 6.0 mph 14.0 mph 85% 0.00 in
18:24 28.0 °F 24.1 °F 29.76 in West 7.0 mph 12.0 mph 85% 0.00 in
18:29 28.0 °F 24.1 °F 29.76 in WSW 6.0 mph 11.0 mph 85% 0.00 in
18:34 27.9 °F 24.0 °F 29.76 in West 3.0 mph 11.0 mph 85% 0.00 in
18:39 28.0 °F 24.1 °F 29.77 in West 4.0 mph 10.0 mph 85% 0.00 in
18:44 28.0 °F 24.1 °F 29.76 in WSW 3.0 mph 9.0 mph 85% 0.00 in
18:49 28.0 °F 24.4 °F 29.76 in West 7.0 mph 11.0 mph 86% 0.00 in
18:54 28.1 °F 24.5 °F 29.76 in WSW 6.0 mph 11.0 mph 86% 0.00 in
18:59 28.2 °F 24.6 °F 29.76 in WSW 5.0 mph 11.0 mph 86% 0.00 in
19:04 28.2 °F 24.6 °F 29.76 in WSW 5.0 mph 10.0 mph 86% 0.00 in
19:09 28.3 °F 24.6 °F 29.76 in WSW 4.0 mph 10.0 mph 86% 0.00 in
19:14 28.3 °F 24.6 °F 29.76 in West 4.0 mph 9.0 mph 86% 0.00 in
19:19 28.4 °F 24.7 °F 29.76 in West 4.0 mph 10.0 mph 86% 0.00 in
19:24 28.3 °F 24.6 °F 29.76 in West 3.0 mph 9.0 mph 86% 0.00 in
19:29 28.3 °F 24.6 °F 29.76 in West 2.0 mph 7.0 mph 86% 0.00 in
19:34 28.3 °F 24.6 °F 29.76 in WSW 8.0 mph 9.0 mph 86% 0.00 in
19:39 28.3 °F 24.6 °F 29.76 in West 2.0 mph 9.0 mph 86% 0.00 in
19:44 28.4 °F 24.7 °F 29.76 in West 6.0 mph 7.0 mph 86% 0.00 in
19:49 28.3 °F 24.6 °F 29.76 in WSW 3.0 mph 6.0 mph 86% 0.00 in
19:54 28.2 °F 24.6 °F 29.75 in West 1.0 mph 8.0 mph 86% 0.00 in
19:59 28.0 °F 24.4 °F 29.75 in West 1.0 mph 6.0 mph 86% 0.00 in
20:04 27.8 °F 24.2 °F 29.75 in West 3.0 mph 7.0 mph 86% 0.00 in
20:09 27.7 °F 24.1 °F 29.76 in West 3.0 mph 7.0 mph 86% 0.00 in
20:14 27.6 °F 24.0 °F 29.75 in West 2.0 mph 6.0 mph 86% 0.00 in
20:19 27.5 °F 23.9 °F 29.75 in West 1.0 mph 3.0 mph 86% 0.00 in
20:24 27.4 °F 23.8 °F 29.75 in Calm   3.0 mph 86% 0.00 in
20:29 27.4 °F 23.8 °F 29.75 in West 1.0 mph 3.0 mph 86% 0.00 in
20:34 27.4 °F 23.8 °F 29.75 in Calm   1.0 mph 86% 0.00 in
20:39 27.3 °F 23.7 °F 29.74 in Calm   4.0 mph 86% 0.00 in
20:44 27.1 °F 23.5 °F 29.74 in West 1.0 mph 4.0 mph 86% 0.00 in
20:49 26.9 °F 23.0 °F 29.74 in Calm   1.0 mph 85% 0.00 in
20:54 27.0 °F 23.1 °F 29.74 in West 4.0 mph 4.0 mph 85% 0.00 in
20:59 26.8 °F 22.6 °F 29.74 in Calm   4.0 mph 84% 0.00 in
21:04 26.7 °F 22.5 °F 29.74 in West 1.0 mph 2.0 mph 84% 0.00 in
21:09 26.5 °F 22.3 °F 29.74 in Calm   1.0 mph 84% 0.00 in
21:14 26.4 °F 22.2 °F 29.74 in Calm   1.0 mph 84% 0.00 in
21:19 26.1 °F 21.9 °F 29.73 in Calm     84% 0.00 in
21:24 25.6 °F 21.2 °F 29.73 in Calm     83% 0.00 in
21:29 25.0 °F 20.8 °F 29.73 in Calm     84% 0.00 in
21:34 24.7 °F 20.6 °F 29.73 in Calm     84% 0.00 in
21:39 24.7 °F 20.8 °F 29.73 in Calm     85% 0.00 in
21:44 24.6 °F 20.7 °F 29.73 in Calm     85% 0.00 in
21:49 24.5 °F 20.6 °F 29.73 in Calm     85% 0.00 in
21:54 24.2 °F 20.3 °F 29.73 in Calm     85% 0.00 in
21:59 24.0 °F 20.1 °F 29.73 in Calm     85% 0.00 in
22:04 23.6 °F 19.8 °F 29.73 in Calm     85% 0.00 in
22:09 23.2 °F 19.4 °F 29.73 in Calm     85% 0.00 in
22:14 22.9 °F 19.3 °F 29.73 in Calm     86% 0.00 in
22:19 22.5 °F 18.9 °F 29.73 in Calm     86% 0.00 in
22:24 22.4 °F 18.8 °F 29.73 in Calm     86% 0.00 in
22:29 22.2 °F 18.7 °F 29.73 in Calm     86% 0.00 in
22:34 22.1 °F 18.8 °F 29.72 in Calm     87% 0.00 in
22:39 22.0 °F 18.7 °F 29.72 in Calm     87% 0.00 in
22:44 22.0 °F 18.7 °F 29.73 in Calm     87% 0.00 in
22:49 21.9 °F 18.6 °F 29.72 in Calm     87% 0.00 in
22:54 21.8 °F 18.5 °F 29.72 in Calm     87% 0.00 in
22:59 21.6 °F 18.3 °F 29.72 in Calm     87% 0.00 in
23:04 21.5 °F 18.5 °F 29.72 in Calm     88% 0.00 in
23:09 21.4 °F 18.4 °F 29.72 in Calm     88% 0.00 in
23:14 21.2 °F 18.2 °F 29.72 in Calm     88% 0.00 in
23:19 21.2 °F 18.2 °F 29.72 in Calm     88% 0.00 in
23:24 21.2 °F 18.2 °F 29.72 in Calm     88% 0.00 in
23:29 21.2 °F 18.2 °F 29.72 in Calm     88% 0.00 in
23:34 20.9 °F 17.9 °F 29.72 in Calm     88% 0.00 in
23:39 20.9 °F 17.9 °F 29.72 in Calm     88% 0.00 in
23:44 21.4 °F 18.7 °F 29.72 in Calm     89% 0.00 in
23:49 21.9 °F 19.2 °F 29.72 in Calm     89% 0.00 in
23:54 22.5 °F 19.7 °F 29.72 in Calm     89% 0.00 in
23:59 23.1 °F 20.3 °F 29.72 in Calm     89% 0.00 in
Buffalo, New York, USA
Compliments of Weather Underground - 2.5 mb